createdAt,value
2022-10-06T00:02:19.376Z,15.55
2022-10-06T00:04:48.995Z,15.54
2022-10-06T00:07:17.876Z,15.51
2022-10-06T00:09:46.549Z,15.47
2022-10-06T00:12:16.398Z,15.41
2022-10-06T00:14:45.632Z,15.36
2022-10-06T00:17:14.349Z,15.34
2022-10-06T00:19:43.790Z,15.32
2022-10-06T00:22:12.761Z,15.29
2022-10-06T00:24:41.237Z,15.28
2022-10-06T00:27:11.548Z,15.26
2022-10-06T00:29:41.825Z,15.24
2022-10-06T00:32:11.066Z,15.20
2022-10-06T00:34:40.389Z,15.19
2022-10-06T00:37:08.820Z,15.18
2022-10-06T00:39:37.361Z,15.16
2022-10-06T00:42:19.734Z,15.15
2022-10-06T00:44:50.112Z,15.14
2022-10-06T00:47:18.570Z,15.14
2022-10-06T00:49:47.209Z,15.13
2022-10-06T00:52:18.224Z,15.12
2022-10-06T00:54:48.218Z,15.10
2022-10-06T00:57:17.173Z,15.09
2022-10-06T00:59:46.627Z,15.06
2022-10-06T01:02:18.457Z,15.05
2022-10-06T01:04:50.046Z,15.02
2022-10-06T01:07:20.792Z,15.01
2022-10-06T01:09:50.061Z,15.01
2022-10-06T01:12:20.963Z,15.00
2022-10-06T01:14:52.008Z,15.00
2022-10-06T01:17:23.898Z,14.98
2022-10-06T01:19:55.548Z,14.96
2022-10-06T01:22:29.930Z,14.94
2022-10-06T01:25:00.797Z,14.93
2022-10-06T01:27:32.454Z,14.95
2022-10-06T01:30:02.493Z,14.98
2022-10-06T01:32:35.825Z,15.04
2022-10-06T01:35:08.126Z,15.12
2022-10-06T01:37:36.661Z,15.22
2022-10-06T01:40:08.892Z,15.29
2022-10-06T01:42:39.489Z,15.37
2022-10-06T01:45:10.595Z,15.48
2022-10-06T01:47:40.598Z,15.68
2022-10-06T01:50:10.928Z,15.82
2022-10-06T01:52:40.051Z,15.96
2022-10-06T01:55:10.208Z,16.09
2022-10-06T01:57:43.844Z,16.23
2022-10-06T02:00:14.050Z,16.41
2022-10-06T02:02:42.851Z,16.58
2022-10-06T02:05:13.963Z,16.75
2022-10-06T02:07:42.353Z,16.90
2022-10-06T02:10:11.856Z,17.04
2022-10-06T02:12:44.104Z,17.18
2022-10-06T02:15:13.539Z,17.31
2022-10-06T02:17:42.238Z,17.39
2022-10-06T02:20:13.697Z,17.50
2022-10-06T02:22:44.821Z,17.57
2022-10-06T02:25:13.143Z,17.64
2022-10-06T02:27:41.937Z,17.74
2022-10-06T02:30:13.917Z,17.81
2022-10-06T02:32:43.624Z,17.87
2022-10-06T02:35:13.330Z,17.92
2022-10-06T02:37:42.286Z,17.95
2022-10-06T02:40:11.726Z,17.97
2022-10-06T02:42:42.126Z,18.00
2022-10-06T02:45:11.837Z,18.00
2022-10-06T02:47:40.868Z,18.01
2022-10-06T02:50:12.352Z,18.03
2022-10-06T02:52:43.198Z,18.05
2022-10-06T02:55:14.138Z,18.08
2022-10-06T02:57:42.948Z,18.10
2022-10-06T03:00:14.430Z,18.11
2022-10-06T03:02:44.434Z,18.13
2022-10-06T03:05:15.858Z,18.15
2022-10-06T03:07:44.213Z,18.17
2022-10-06T03:10:12.877Z,18.16
2022-10-06T03:12:43.748Z,18.13
2022-10-06T03:15:13.058Z,18.14
2022-10-06T03:17:41.572Z,18.13
2022-10-06T03:20:11.123Z,18.11
2022-10-06T03:22:39.618Z,18.09
2022-10-06T03:25:10.358Z,18.08
2022-10-06T03:27:40.999Z,18.07
2022-10-06T03:30:12.192Z,18.07
2022-10-06T03:32:42.452Z,18.06
2022-10-06T03:35:11.587Z,18.02
2022-10-06T03:37:40.918Z,18.00
2022-10-06T03:40:12.651Z,17.96
2022-10-06T03:42:42.037Z,17.94
2022-10-06T03:45:12.465Z,17.92
2022-10-06T03:47:42.055Z,17.92
2022-10-06T03:50:13.901Z,17.91
2022-10-06T03:52:42.409Z,17.90
2022-10-06T03:55:13.814Z,17.85
2022-10-06T03:57:43.619Z,17.78
2022-10-06T04:00:15.692Z,17.73
2022-10-06T04:02:45.506Z,17.70
2022-10-06T04:05:15.752Z,17.70
2022-10-06T04:07:45.126Z,17.73
2022-10-06T04:10:15.116Z,17.70
2022-10-06T04:12:46.009Z,17.69
2022-10-06T04:15:15.226Z,17.67
2022-10-06T04:17:44.483Z,17.63
2022-10-06T04:20:15.855Z,17.62
2022-10-06T04:22:44.636Z,17.59
2022-10-06T04:25:15.895Z,17.56
2022-10-06T04:27:45.941Z,17.57
2022-10-06T04:30:16.145Z,17.63
2022-10-06T04:32:45.094Z,17.63
2022-10-06T04:35:15.358Z,17.65
2022-10-06T04:37:46.076Z,17.66
2022-10-06T04:40:17.548Z,17.64
2022-10-06T04:42:47.347Z,17.64
2022-10-06T04:45:17.389Z,17.66
2022-10-06T04:47:45.754Z,17.66
2022-10-06T04:50:14.950Z,17.67
2022-10-06T04:52:44.818Z,17.65
2022-10-06T04:55:13.501Z,17.65
2022-10-06T04:57:42.950Z,17.66
2022-10-06T05:00:25.032Z,17.67
2022-10-06T05:02:55.825Z,17.67
2022-10-06T05:05:26.617Z,17.69
2022-10-06T05:07:56.346Z,17.71
2022-10-06T05:10:27.909Z,17.75
2022-10-06T05:12:56.951Z,17.77
2022-10-06T05:15:28.231Z,17.80
2022-10-06T05:17:57.679Z,17.83
2022-10-06T05:20:28.462Z,17.86
2022-10-06T05:22:57.049Z,17.91
2022-10-06T05:25:25.944Z,18.00
2022-10-06T05:27:55.802Z,18.13
2022-10-06T05:30:26.661Z,18.26
2022-10-06T05:32:55.393Z,18.38
2022-10-06T05:35:26.152Z,18.47
2022-10-06T05:37:56.359Z,18.55
2022-10-06T05:40:26.649Z,18.66
2022-10-06T05:42:56.911Z,18.75
2022-10-06T05:45:27.953Z,18.82
2022-10-06T05:47:57.055Z,18.88
2022-10-06T05:50:27.337Z,18.95
2022-10-06T05:52:56.002Z,19.02
2022-10-06T05:55:26.523Z,19.06
2022-10-06T05:57:56.242Z,19.17
2022-10-06T06:00:25.993Z,19.22
2022-10-06T06:02:57.473Z,19.25
2022-10-06T06:05:26.614Z,19.29
2022-10-06T06:07:55.012Z,19.33
2022-10-06T06:10:23.800Z,19.35
2022-10-06T06:12:54.577Z,19.42
2022-10-06T06:15:43.295Z,19.49
2022-10-06T06:18:14.306Z,19.51
2022-10-06T06:20:44.000Z,19.53
2022-10-06T06:23:12.565Z,19.51
2022-10-06T06:25:43.711Z,19.49
2022-10-06T06:28:13.787Z,19.44
2022-10-06T06:30:45.030Z,19.43
2022-10-06T06:33:14.168Z,19.39
2022-10-06T06:35:44.221Z,19.37
2022-10-06T06:38:13.999Z,19.34
2022-10-06T06:40:45.533Z,19.33
2022-10-06T06:43:16.299Z,19.32
2022-10-06T06:45:44.692Z,19.33
2022-10-06T06:48:16.306Z,19.37
2022-10-06T06:50:45.587Z,19.47
2022-10-06T06:53:16.250Z,19.61
2022-10-06T06:55:51.455Z,19.68
2022-10-06T06:58:21.514Z,19.66
2022-10-06T07:00:50.862Z,19.67
2022-10-06T07:03:38.557Z,19.72
2022-10-06T07:06:13.229Z,19.76
2022-10-06T07:08:44.378Z,19.85
2022-10-06T07:11:15.887Z,19.95
2022-10-06T07:13:46.096Z,20.04
2022-10-06T07:16:35.626Z,20.18
2022-10-06T07:19:25.487Z,20.28
2022-10-06T07:22:14.774Z,20.37
2022-10-06T07:25:04.236Z,20.49
2022-10-06T07:27:35.217Z,20.63
2022-10-06T07:30:06.394Z,20.78
2022-10-06T07:32:35.748Z,21.00
2022-10-06T07:35:07.213Z,21.30
2022-10-06T07:37:36.511Z,21.52
2022-10-06T07:40:10.135Z,21.65
2022-10-06T07:42:52.371Z,21.73
2022-10-06T07:45:42.441Z,21.80
2022-10-06T07:48:14.749Z,21.79
2022-10-06T07:50:47.193Z,21.82
2022-10-06T07:53:17.169Z,21.85
2022-10-06T07:55:49.291Z,21.87
2022-10-06T07:58:19.341Z,21.97
2022-10-06T08:00:48.556Z,22.07
2022-10-06T08:03:19.962Z,22.22
2022-10-06T08:05:54.714Z,22.36
2022-10-06T08:08:25.627Z,22.41
2022-10-06T08:10:55.550Z,22.45
2022-10-06T08:13:25.034Z,22.50
2022-10-06T08:15:56.052Z,22.64
2022-10-06T08:18:45.479Z,22.74
2022-10-06T08:21:16.001Z,22.88
2022-10-06T08:23:46.078Z,22.99
2022-10-06T08:26:39.789Z,23.10
2022-10-06T08:29:11.181Z,23.25
2022-10-06T08:31:40.637Z,23.35
2022-10-06T08:34:12.067Z,23.44
2022-10-06T08:37:02.178Z,23.50
2022-10-06T08:39:33.574Z,23.63
2022-10-06T08:42:03.293Z,23.70
2022-10-06T08:44:40.212Z,23.67
2022-10-06T08:47:17.193Z,23.66
2022-10-06T08:49:47.568Z,23.60
2022-10-06T08:52:25.834Z,23.56
2022-10-06T08:55:04.144Z,23.50
2022-10-06T08:57:38.590Z,23.51
2022-10-06T09:00:12.323Z,23.63
2022-10-06T09:02:44.986Z,23.72
2022-10-06T09:05:24.864Z,23.81
2022-10-06T09:08:10.774Z,23.86
2022-10-06T09:10:45.560Z,23.84
2022-10-06T09:13:21.766Z,23.87
2022-10-06T09:15:54.403Z,23.93
2022-10-06T09:18:49.362Z,23.99
2022-10-06T09:21:26.154Z,24.07
2022-10-06T09:23:58.699Z,24.11
2022-10-06T09:26:30.682Z,24.14
2022-10-06T09:29:00.774Z,24.14
2022-10-06T09:31:31.906Z,24.22
2022-10-06T09:34:04.877Z,24.33
2022-10-06T09:36:35.603Z,24.40
2022-10-06T09:39:05.783Z,24.46
2022-10-06T09:41:40.132Z,24.59
2022-10-06T09:44:25.773Z,24.58
2022-10-06T09:46:55.515Z,24.65
2022-10-06T09:49:25.867Z,24.72
2022-10-06T09:52:10.205Z,24.73
2022-10-06T09:54:43.617Z,24.77
2022-10-06T09:57:16.351Z,24.81
2022-10-06T09:59:47.967Z,24.88
2022-10-06T10:02:30.580Z,25.01
2022-10-06T10:04:59.917Z,25.04
2022-10-06T10:07:31.912Z,25.11
2022-10-06T10:10:21.594Z,25.14
2022-10-06T10:12:54.749Z,25.14
2022-10-06T10:15:30.965Z,25.12
2022-10-06T10:18:03.358Z,25.21
2022-10-06T10:20:36.217Z,25.25
2022-10-06T10:23:18.399Z,25.33
2022-10-06T10:26:08.126Z,25.40
2022-10-06T10:29:14.543Z,25.45
2022-10-06T10:31:52.591Z,25.53
2022-10-06T10:34:37.662Z,25.61
2022-10-06T10:37:11.606Z,25.70
2022-10-06T10:39:44.154Z,25.86
2022-10-06T10:42:17.856Z,26.05
2022-10-06T10:44:52.732Z,26.21
2022-10-06T10:47:27.299Z,26.26
2022-10-06T10:50:02.753Z,26.16
2022-10-06T10:52:35.211Z,26.23
2022-10-06T10:55:18.273Z,26.32
2022-10-06T10:57:47.538Z,26.38
2022-10-06T11:00:20.528Z,26.38
2022-10-06T11:02:49.475Z,26.43
2022-10-06T11:05:32.788Z,26.56
2022-10-06T11:08:11.175Z,26.65
2022-10-06T11:10:46.208Z,26.81
2022-10-06T11:13:25.401Z,26.85
2022-10-06T11:16:22.462Z,27.01
2022-10-06T11:19:08.461Z,27.20
2022-10-06T11:21:43.978Z,27.28
2022-10-06T11:24:16.934Z,27.27
2022-10-06T11:27:09.682Z,27.25
2022-10-06T11:29:42.593Z,27.24
2022-10-06T11:32:23.664Z,27.23
2022-10-06T11:34:52.618Z,27.13
2022-10-06T11:37:33.887Z,27.05
2022-10-06T11:40:17.137Z,27.00
2022-10-06T11:42:50.269Z,26.83
2022-10-06T11:45:26.261Z,26.70
2022-10-06T11:48:10.682Z,26.61
2022-10-06T11:50:42.056Z,26.50
2022-10-06T11:53:28.520Z,26.51
2022-10-06T11:56:28.260Z,26.53
2022-10-06T11:59:26.193Z,26.67
2022-10-06T12:02:03.801Z,26.85
2022-10-06T12:04:32.555Z,26.96
2022-10-06T12:07:05.730Z,27.21
2022-10-06T12:09:54.185Z,27.50
2022-10-06T12:12:43.468Z,27.61
2022-10-06T12:17:08.684Z,27.62
2022-10-06T12:18:27.610Z,27.65
2022-10-06T12:21:23.713Z,27.71
2022-10-06T12:24:05.899Z,27.64
2022-10-06T12:26:45.657Z,27.52
2022-10-06T12:29:27.618Z,27.46
2022-10-06T12:32:02.929Z,27.49
2022-10-06T12:34:56.869Z,27.50
2022-10-06T12:37:53.089Z,27.49
2022-10-06T12:40:55.415Z,27.38
2022-10-06T12:43:56.484Z,27.34
2022-10-06T12:46:46.026Z,27.37
2022-10-06T12:49:36.295Z,27.38
2022-10-06T12:52:18.431Z,27.37
2022-10-06T12:54:55.901Z,27.48
2022-10-06T12:57:33.437Z,27.48
2022-10-06T13:00:03.697Z,27.40
2022-10-06T13:02:34.171Z,27.30
2022-10-06T13:05:11.798Z,27.18
2022-10-06T13:07:59.290Z,27.21
2022-10-06T13:10:30.204Z,27.43
2022-10-06T13:13:00.783Z,27.69
2022-10-06T13:15:33.499Z,27.71
2022-10-06T13:18:10.619Z,27.57
2022-10-06T13:20:42.924Z,27.51
2022-10-06T13:23:26.161Z,27.42
2022-10-06T13:25:57.611Z,27.46
2022-10-06T13:28:49.580Z,27.39
2022-10-06T13:31:21.754Z,27.16
2022-10-06T13:33:54.840Z,26.99
2022-10-06T13:36:24.784Z,26.97
2022-10-06T13:38:55.058Z,27.11
2022-10-06T13:41:29.649Z,27.12
2022-10-06T13:44:02.368Z,27.13
2022-10-06T13:46:37.942Z,27.18
2022-10-06T13:49:18.115Z,27.27
2022-10-06T13:51:50.483Z,27.27
2022-10-06T13:54:24.372Z,27.14
2022-10-06T13:56:53.266Z,27.09
2022-10-06T13:59:30.958Z,27.01
2022-10-06T14:02:36.950Z,26.84
2022-10-06T14:05:34.738Z,26.74
2022-10-06T14:08:22.206Z,26.70
2022-10-06T14:10:56.878Z,26.71
2022-10-06T14:13:31.748Z,26.70
2022-10-06T14:16:05.851Z,26.62
2022-10-06T14:18:42.836Z,26.52
2022-10-06T14:21:29.530Z,26.51
2022-10-06T14:24:07.550Z,26.50
2022-10-06T14:26:44.651Z,26.48
2022-10-06T14:29:20.590Z,26.42
2022-10-06T14:31:52.492Z,26.32
2022-10-06T14:34:28.025Z,26.23
2022-10-06T14:37:03.107Z,26.13
2022-10-06T14:39:38.097Z,26.05
2022-10-06T14:42:15.853Z,25.98
2022-10-06T14:44:49.173Z,26.01
2022-10-06T14:47:21.033Z,26.05
2022-10-06T14:49:53.672Z,25.97
2022-10-06T14:52:27.870Z,25.75
2022-10-06T14:55:01.613Z,25.62
2022-10-06T14:57:36.858Z,25.63
2022-10-06T15:00:12.086Z,25.54
2022-10-06T15:02:44.687Z,25.35
2022-10-06T15:05:18.061Z,25.24
2022-10-06T15:08:09.794Z,25.22
2022-10-06T15:10:45.928Z,25.11
2022-10-06T15:13:18.572Z,24.94
2022-10-06T15:15:51.569Z,24.81
2022-10-06T15:18:23.715Z,24.85
2022-10-06T15:20:56.159Z,24.82
2022-10-06T15:23:29.984Z,24.73
2022-10-06T15:26:20.816Z,24.67
2022-10-06T15:29:06.633Z,24.51
2022-10-06T15:31:40.364Z,24.37
2022-10-06T15:34:13.881Z,24.27
2022-10-06T15:36:46.292Z,24.17
2022-10-06T15:39:18.497Z,24.09
2022-10-06T15:41:51.006Z,24.01
2022-10-06T15:44:24.484Z,23.83
2022-10-06T15:46:59.215Z,23.71
2022-10-06T15:49:38.650Z,23.62
2022-10-06T15:52:14.103Z,23.54
2022-10-06T15:54:50.093Z,23.45
2022-10-06T15:57:27.624Z,23.39
2022-10-06T16:00:00.394Z,23.29
2022-10-06T16:02:35.812Z,23.20
2022-10-06T16:05:29.939Z,23.09
2022-10-06T16:08:03.065Z,22.96
2022-10-06T16:10:36.622Z,22.85
2022-10-06T16:13:09.979Z,22.77
2022-10-06T16:15:43.122Z,22.71
2022-10-06T16:18:19.132Z,22.69
2022-10-06T16:20:56.853Z,22.66
2022-10-06T16:23:30.262Z,22.63
2022-10-06T16:26:05.540Z,22.61
2022-10-06T16:28:39.144Z,22.61
2022-10-06T16:31:12.043Z,22.58
2022-10-06T16:33:46.376Z,22.53
2022-10-06T16:36:19.724Z,22.51
2022-10-06T16:38:55.045Z,22.52
2022-10-06T16:41:27.290Z,22.56
2022-10-06T16:43:59.700Z,22.57
2022-10-06T16:46:33.591Z,22.58
2022-10-06T16:49:08.930Z,22.61
2022-10-06T16:51:46.940Z,22.67
2022-10-06T16:54:19.793Z,22.66
2022-10-06T16:56:54.656Z,22.59
2022-10-06T16:59:28.848Z,22.55
2022-10-06T17:02:00.874Z,22.49
2022-10-06T17:04:34.059Z,22.42
2022-10-06T17:07:07.905Z,22.35
2022-10-06T17:09:55.855Z,22.26
2022-10-06T17:12:33.827Z,22.12
2022-10-06T17:15:08.513Z,22.01
2022-10-06T17:17:42.041Z,21.95
2022-10-06T17:20:17.556Z,21.88
2022-10-06T17:22:50.475Z,21.84
2022-10-06T17:25:23.800Z,21.78
2022-10-06T17:27:57.506Z,21.69
2022-10-06T17:30:29.663Z,21.64
2022-10-06T17:33:02.722Z,21.53
2022-10-06T17:35:42.367Z,21.53
2022-10-06T17:38:16.529Z,21.50
2022-10-06T17:40:50.235Z,21.39
2022-10-06T17:43:25.573Z,21.28
2022-10-06T17:46:00.306Z,21.19
2022-10-06T17:48:35.502Z,21.09
2022-10-06T17:51:08.125Z,21.00
2022-10-06T17:53:44.449Z,20.91
2022-10-06T17:56:23.387Z,20.85
2022-10-06T17:59:01.103Z,20.78
2022-10-06T18:01:34.840Z,20.75
2022-10-06T18:04:08.717Z,20.68
2022-10-06T18:06:41.384Z,20.62
2022-10-06T18:09:14.616Z,20.63
2022-10-06T18:11:48.517Z,20.55
2022-10-06T18:14:22.974Z,20.48
2022-10-06T18:16:58.604Z,20.42
2022-10-06T18:19:32.432Z,20.37
2022-10-06T18:22:10.419Z,20.33
2022-10-06T18:24:42.751Z,20.31
2022-10-06T18:27:17.151Z,20.26
2022-10-06T18:29:50.822Z,20.20
2022-10-06T18:38:09.289Z,19.94
2022-10-06T18:40:42.400Z,19.88
2022-10-06T18:43:16.678Z,19.81
2022-10-06T18:46:11.597Z,19.74
2022-10-06T18:49:01.254Z,19.63
2022-10-06T18:51:36.719Z,19.51
2022-10-06T18:54:11.323Z,19.38
2022-10-06T18:56:50.865Z,19.31
2022-10-06T18:59:26.334Z,19.26
2022-10-06T19:02:00.467Z,19.18
2022-10-06T19:04:36.362Z,19.14
2022-10-06T19:07:09.297Z,19.12
2022-10-06T19:09:46.455Z,19.08
2022-10-06T19:12:20.647Z,19.03
2022-10-06T19:14:53.873Z,18.98
2022-10-06T19:17:26.801Z,18.96
2022-10-06T19:20:00.378Z,18.96
2022-10-06T19:22:35.605Z,18.90
2022-10-06T19:25:11.280Z,18.84
2022-10-06T19:27:44.047Z,18.82
2022-10-06T19:30:18.372Z,18.79
2022-10-06T19:32:53.588Z,18.78
2022-10-06T19:35:27.194Z,18.77
2022-10-06T19:38:00.610Z,18.71
2022-10-06T19:40:33.278Z,18.69
2022-10-06T19:43:07.095Z,18.67
2022-10-06T19:45:40.367Z,18.67
2022-10-06T19:48:13.338Z,18.66
2022-10-06T19:50:46.985Z,18.60
2022-10-06T19:53:19.551Z,18.58
2022-10-06T19:55:52.443Z,18.54
2022-10-06T19:58:26.551Z,18.53
2022-10-06T20:00:59.777Z,18.51
2022-10-06T20:03:39.803Z,18.49
2022-10-06T20:06:15.028Z,18.42
2022-10-06T20:08:49.229Z,18.37
2022-10-06T20:11:23.341Z,18.30
2022-10-06T20:13:55.162Z,18.21
2022-10-06T20:16:29.250Z,18.14
2022-10-06T20:19:02.009Z,18.08
2022-10-06T20:21:35.456Z,18.00
2022-10-06T20:24:12.940Z,17.93
2022-10-06T20:26:47.260Z,17.86
2022-10-06T20:29:21.647Z,17.81
2022-10-06T20:31:55.804Z,17.74
2022-10-06T20:34:31.772Z,17.67
2022-10-06T20:37:05.953Z,17.62
2022-10-06T20:39:56.135Z,17.58
2022-10-06T20:42:29.175Z,17.56
2022-10-06T20:45:01.510Z,17.56
2022-10-06T20:47:35.793Z,17.52
2022-10-06T20:50:10.017Z,17.47
2022-10-06T20:52:42.137Z,17.39
2022-10-06T20:55:14.927Z,17.32
2022-10-06T20:57:49.175Z,17.28
2022-10-06T21:00:25.533Z,17.26
2022-10-06T21:02:57.610Z,17.20
2022-10-06T21:05:33.177Z,17.13
2022-10-06T21:08:06.230Z,17.08
2022-10-06T21:10:38.643Z,17.05
2022-10-06T21:13:10.788Z,17.01
2022-10-06T21:15:47.123Z,16.97
2022-10-06T21:18:19.114Z,16.92
2022-10-06T21:21:03.391Z,16.84
2022-10-06T21:23:39.281Z,16.81
2022-10-06T21:26:13.854Z,16.79
2022-10-06T21:28:46.151Z,16.75
2022-10-06T21:31:18.997Z,16.72
2022-10-06T21:33:51.159Z,16.69
2022-10-06T21:36:24.308Z,16.69
2022-10-06T21:38:57.431Z,16.67
2022-10-06T21:41:31.635Z,16.63
2022-10-06T21:44:05.048Z,16.62
2022-10-06T21:46:38.181Z,16.60
2022-10-06T21:49:13.175Z,16.55
2022-10-06T21:51:46.382Z,16.55
2022-10-06T21:54:18.939Z,16.54
2022-10-06T21:56:51.602Z,16.53
2022-10-06T21:59:23.735Z,16.49
2022-10-06T22:01:56.827Z,16.43
2022-10-06T22:04:29.179Z,16.37
2022-10-06T22:07:01.287Z,16.32
2022-10-06T22:09:33.527Z,16.28
2022-10-06T22:12:05.935Z,16.26
2022-10-06T22:14:38.075Z,16.22
2022-10-06T22:17:09.875Z,16.19
2022-10-06T22:19:41.814Z,16.17
2022-10-06T22:22:13.779Z,16.16
2022-10-06T22:24:45.621Z,16.13
2022-10-06T22:27:19.994Z,16.09
2022-10-06T22:29:51.746Z,16.03
2022-10-06T22:32:24.233Z,15.98
2022-10-06T22:34:56.518Z,15.96
2022-10-06T22:37:28.335Z,15.94
2022-10-06T22:40:04.084Z,15.91
2022-10-06T22:42:38.974Z,15.89
2022-10-06T22:45:12.531Z,15.88
2022-10-06T22:47:45.929Z,15.81
2022-10-06T22:50:18.113Z,15.79
2022-10-06T22:52:50.095Z,15.77
2022-10-06T22:55:21.907Z,15.72
2022-10-06T22:57:53.862Z,15.69
2022-10-06T23:00:27.860Z,15.66
2022-10-06T23:02:59.967Z,15.62
2022-10-06T23:05:34.239Z,15.62
2022-10-06T23:08:06.959Z,15.62
2022-10-06T23:10:39.355Z,15.63
2022-10-06T23:13:11.267Z,15.59
2022-10-06T23:15:43.015Z,15.56
2022-10-06T23:18:15.863Z,15.49
2022-10-06T23:20:47.679Z,15.43
2022-10-06T23:23:19.491Z,15.43
2022-10-06T23:25:51.330Z,15.41
2022-10-06T23:28:23.261Z,15.41
2022-10-06T23:30:55.031Z,15.40
2022-10-06T23:33:27.034Z,15.38
2022-10-06T23:36:04.316Z,15.37
2022-10-06T23:38:36.596Z,15.34
2022-10-06T23:41:09.129Z,15.29
2022-10-06T23:43:41.102Z,15.24
2022-10-06T23:46:13.155Z,15.20
2022-10-06T23:48:45.018Z,15.19
2022-10-06T23:51:17.594Z,15.17
2022-10-06T23:53:49.348Z,15.10
2022-10-06T23:56:21.987Z,15.07
2022-10-06T23:58:53.683Z,15.04
